createdAt,value
2022-08-17T00:01:30.073Z,24.15
2022-08-17T00:04:09.294Z,24.13
2022-08-17T00:06:38.278Z,24.09
2022-08-17T00:09:05.620Z,24.09
2022-08-17T00:11:36.996Z,24.08
2022-08-17T00:14:13.709Z,24.00
2022-08-17T00:16:53.457Z,24.01
2022-08-17T00:19:25.079Z,23.98
2022-08-17T00:22:32.061Z,23.97
2022-08-17T00:24:42.868Z,23.93
2022-08-17T00:27:09.387Z,23.90
2022-08-17T00:29:36.346Z,23.90
2022-08-17T00:33:13.692Z,23.84
2022-08-17T00:34:49.988Z,23.84
2022-08-17T00:37:16.680Z,23.81
2022-08-17T00:39:43.453Z,23.81
2022-08-17T00:42:18.895Z,23.76
2022-08-17T00:44:45.934Z,23.75
2022-08-17T00:47:12.590Z,23.74
2022-08-17T00:49:39.063Z,23.73
2022-08-17T00:52:15.286Z,23.71
2022-08-17T00:54:44.696Z,23.67
2022-08-17T00:57:18.902Z,23.64
2022-08-17T00:59:51.150Z,23.62
2022-08-17T01:02:34.244Z,23.59
2022-08-17T01:05:09.922Z,23.55
2022-08-17T01:07:37.910Z,23.54
2022-08-17T01:10:09.024Z,23.53
2022-08-17T01:12:56.772Z,23.49
2022-08-17T01:15:23.484Z,23.47
2022-08-17T01:17:50.227Z,23.44
2022-08-17T01:20:16.952Z,23.43
2022-08-17T01:22:43.543Z,23.38
2022-08-17T01:25:12.654Z,23.37
2022-08-17T01:27:39.462Z,23.34
2022-08-17T01:30:56.850Z,23.35
2022-08-17T01:32:58.052Z,23.30
2022-08-17T01:35:24.727Z,23.28
2022-08-17T01:37:51.217Z,23.26
2022-08-17T01:40:33.000Z,23.23
2022-08-17T01:43:03.960Z,23.22
2022-08-17T01:45:33.762Z,23.19
2022-08-17T01:48:01.036Z,23.18
2022-08-17T01:50:31.383Z,23.14
2022-08-17T01:53:06.121Z,23.14
2022-08-17T01:55:39.707Z,23.12
2022-08-17T01:58:09.636Z,23.08
2022-08-17T02:00:47.839Z,23.08
2022-08-17T02:03:25.106Z,23.03
2022-08-17T02:05:53.231Z,23.03
2022-08-17T02:08:36.913Z,23.02
2022-08-17T02:11:11.608Z,22.97
2022-08-17T02:13:39.028Z,22.97
2022-08-17T02:16:05.957Z,22.94
2022-08-17T02:18:32.837Z,22.92
2022-08-17T02:20:59.738Z,22.91
2022-08-17T02:23:29.185Z,22.86
2022-08-17T02:25:58.783Z,22.87
2022-08-17T02:28:25.435Z,22.85
2022-08-17T02:31:01.022Z,22.82
2022-08-17T02:33:41.760Z,22.79
2022-08-17T02:36:12.331Z,22.79
2022-08-17T02:38:40.536Z,22.77
2022-08-17T02:41:08.013Z,22.73
2022-08-17T02:43:35.398Z,22.73
2022-08-17T02:46:01.931Z,22.72
2022-08-17T02:48:31.561Z,22.71
2022-08-17T02:51:00.131Z,22.68
2022-08-17T02:53:27.701Z,22.66
2022-08-17T02:56:02.171Z,22.64
2022-08-17T02:58:34.635Z,22.63
2022-08-17T03:01:03.672Z,22.60
2022-08-17T03:03:30.154Z,22.56
2022-08-17T03:05:56.601Z,22.53
2022-08-17T03:08:23.386Z,22.54
2022-08-17T03:10:50.484Z,22.51
2022-08-17T03:13:17.611Z,22.52
2022-08-17T03:15:46.181Z,22.51
2022-08-17T03:18:24.175Z,22.48
2022-08-17T03:20:56.950Z,22.47
2022-08-17T03:23:25.542Z,22.46
2022-08-17T03:25:53.733Z,22.44
2022-08-17T03:28:21.406Z,22.42
2022-08-17T03:30:47.933Z,22.40
2022-08-17T03:33:14.786Z,22.38
2022-08-17T03:35:41.700Z,22.37
2022-08-17T03:38:10.849Z,22.37
2022-08-17T03:40:58.887Z,22.34
2022-08-17T03:43:25.153Z,22.30
2022-08-17T03:46:19.289Z,22.31
2022-08-17T03:49:15.025Z,22.28
2022-08-17T03:52:00.012Z,22.26
2022-08-17T03:54:45.186Z,22.22
2022-08-17T03:57:12.423Z,22.18
2022-08-17T03:59:39.419Z,22.19
2022-08-17T04:02:21.336Z,22.15
2022-08-17T04:04:50.873Z,22.16
2022-08-17T04:07:19.474Z,22.14
2022-08-17T04:09:46.084Z,22.11
2022-08-17T04:12:16.071Z,22.08
2022-08-17T04:14:53.001Z,22.08
2022-08-17T04:17:24.089Z,22.08
2022-08-17T04:19:51.184Z,22.06
2022-08-17T04:22:31.850Z,22.04
2022-08-17T04:25:15.270Z,22.01
2022-08-17T04:27:41.905Z,22.00
2022-08-17T04:30:09.033Z,21.99
2022-08-17T04:33:07.529Z,21.96
2022-08-17T04:35:43.065Z,21.96
2022-08-17T04:38:12.345Z,21.95
2022-08-17T04:40:57.248Z,21.92
2022-08-17T04:43:25.695Z,21.91
2022-08-17T04:45:57.175Z,21.88
2022-08-17T04:48:29.573Z,21.89
2022-08-17T04:51:06.149Z,21.88
2022-08-17T04:53:32.691Z,21.87
2022-08-17T04:55:59.414Z,21.85
2022-08-17T04:58:26.295Z,21.82
2022-08-17T05:00:53.196Z,21.82
2022-08-17T05:03:19.713Z,21.83
2022-08-17T05:05:49.480Z,21.82
2022-08-17T05:08:19.024Z,21.83
2022-08-17T05:10:46.860Z,21.82
2022-08-17T05:13:17.373Z,21.81
2022-08-17T05:15:47.919Z,21.82
2022-08-17T05:18:15.941Z,21.78
2022-08-17T05:20:43.260Z,21.82
2022-08-17T05:23:12.786Z,21.81
2022-08-17T05:25:42.664Z,21.81
2022-08-17T05:28:15.430Z,21.82
2022-08-17T05:30:44.271Z,21.83
2022-08-17T05:33:33.050Z,21.83
2022-08-17T05:36:00.472Z,21.83
2022-08-17T05:38:29.852Z,21.85
2022-08-17T05:40:57.627Z,21.84
2022-08-17T05:43:25.744Z,21.87
2022-08-17T05:46:03.472Z,21.87
2022-08-17T05:48:40.026Z,21.89
2022-08-17T05:51:16.373Z,21.90
2022-08-17T05:54:16.799Z,21.91
2022-08-17T05:56:43.221Z,21.93
2022-08-17T05:59:27.955Z,21.94
2022-08-17T06:02:11.479Z,21.95
2022-08-17T06:05:12.506Z,21.95
2022-08-17T06:07:50.408Z,21.98
2022-08-17T06:10:22.844Z,22.00
2022-08-17T06:13:05.367Z,22.02
2022-08-17T06:15:47.020Z,22.04
2022-08-17T06:18:18.927Z,22.06
2022-08-17T06:20:54.319Z,22.07
2022-08-17T06:23:29.361Z,22.09
2022-08-17T06:26:03.618Z,22.09
2022-08-17T06:28:43.779Z,22.11
2022-08-17T06:31:21.335Z,22.14
2022-08-17T06:33:49.117Z,22.16
2022-08-17T06:36:24.043Z,22.19
2022-08-17T06:39:24.895Z,22.20
2022-08-17T06:43:00.850Z,22.23
2022-08-17T06:45:14.147Z,22.24
2022-08-17T06:47:58.384Z,22.27
2022-08-17T06:50:38.040Z,22.28
2022-08-17T06:53:21.086Z,22.33
2022-08-17T06:55:58.450Z,22.38
2022-08-17T06:58:31.290Z,22.41
2022-08-17T07:01:07.102Z,22.43
2022-08-17T07:03:39.527Z,22.47
2022-08-17T07:06:14.531Z,22.45
2022-08-17T07:08:56.474Z,22.55
2022-08-17T07:11:29.921Z,22.58
2022-08-17T07:14:17.399Z,22.62
2022-08-17T07:16:48.819Z,22.66
2022-08-17T07:19:18.407Z,22.69
2022-08-17T07:22:04.549Z,22.70
2022-08-17T07:24:57.217Z,22.74
2022-08-17T07:27:28.454Z,22.80
2022-08-17T07:30:09.714Z,22.82
2022-08-17T07:32:45.236Z,22.87
2022-08-17T07:35:37.712Z,22.87
2022-08-17T07:38:24.842Z,22.93
2022-08-17T07:41:01.894Z,23.01
2022-08-17T07:43:47.625Z,23.04
2022-08-17T07:46:37.771Z,23.10
2022-08-17T07:49:04.939Z,23.15
2022-08-17T07:51:33.751Z,23.18
2022-08-17T07:54:14.525Z,23.24
2022-08-17T07:56:48.134Z,23.32
2022-08-17T07:59:18.085Z,23.35
2022-08-17T08:01:58.761Z,23.38
2022-08-17T08:05:00.164Z,23.43
2022-08-17T08:07:20.785Z,23.48
2022-08-17T08:10:11.320Z,23.53
2022-08-17T08:12:44.017Z,23.59
2022-08-17T08:15:18.882Z,23.64
2022-08-17T08:17:59.203Z,23.69
2022-08-17T08:20:52.911Z,23.71
2022-08-17T08:23:33.416Z,23.79
2022-08-17T08:26:26.719Z,23.83
2022-08-17T08:29:12.478Z,23.89
2022-08-17T08:32:03.962Z,23.93
2022-08-17T08:35:02.926Z,23.91
2022-08-17T08:37:35.620Z,24.05
2022-08-17T08:40:21.829Z,24.10
2022-08-17T08:43:07.026Z,24.15
2022-08-17T08:45:56.471Z,24.18
2022-08-17T08:49:11.873Z,24.21
2022-08-17T08:51:55.481Z,24.27
2022-08-17T08:54:46.778Z,24.32
2022-08-17T08:57:38.516Z,24.33
2022-08-17T09:00:16.537Z,24.40
2022-08-17T09:03:12.866Z,24.42
2022-08-17T09:06:32.251Z,24.47
2022-08-17T09:09:07.027Z,24.50
2022-08-17T09:12:02.428Z,24.56
2022-08-17T09:14:44.892Z,24.60
2022-08-17T09:17:43.177Z,24.64
2022-08-17T09:20:27.727Z,24.70
2022-08-17T09:23:03.839Z,24.76
2022-08-17T09:25:36.640Z,24.82
2022-08-17T09:28:19.281Z,24.86
2022-08-17T09:30:49.642Z,24.94
2022-08-17T09:33:23.052Z,24.97
2022-08-17T09:35:56.184Z,25.02
2022-08-17T09:38:32.539Z,25.02
2022-08-17T09:40:59.208Z,25.10
2022-08-17T09:43:28.777Z,25.16
2022-08-17T09:46:11.390Z,25.21
2022-08-17T09:49:07.241Z,25.25
2022-08-17T09:51:45.540Z,25.28
2022-08-17T09:54:44.671Z,25.33
2022-08-17T09:57:32.444Z,25.35
2022-08-17T10:00:18.869Z,25.40
2022-08-17T10:03:09.448Z,25.43
2022-08-17T10:05:46.352Z,25.48
2022-08-17T10:08:21.811Z,25.53
2022-08-17T10:11:13.244Z,25.57
2022-08-17T10:13:53.006Z,25.59
2022-08-17T10:16:37.312Z,25.62
2022-08-17T10:19:25.505Z,25.66
2022-08-17T10:22:14.420Z,25.70
2022-08-17T10:25:22.749Z,25.76
2022-08-17T10:28:05.008Z,25.79
2022-08-17T10:30:36.430Z,25.88
2022-08-17T10:33:07.357Z,25.92
2022-08-17T10:35:52.553Z,25.95
2022-08-17T10:38:39.217Z,25.99
2022-08-17T10:41:17.473Z,26.07
2022-08-17T10:43:57.816Z,26.08
2022-08-17T10:46:55.350Z,26.16
2022-08-17T10:49:26.247Z,26.25
2022-08-17T10:51:54.854Z,26.33
2022-08-17T10:54:24.090Z,26.35
2022-08-17T10:56:53.342Z,26.42
2022-08-17T10:59:34.720Z,26.43
2022-08-17T11:02:01.116Z,26.48
2022-08-17T11:04:53.253Z,26.50
2022-08-17T11:07:36.740Z,26.56
2022-08-17T11:10:42.198Z,26.55
2022-08-17T11:13:14.372Z,26.64
2022-08-17T11:16:08.141Z,26.69
2022-08-17T11:18:53.551Z,26.67
2022-08-17T11:21:30.352Z,26.80
2022-08-17T11:24:06.581Z,26.83
2022-08-17T11:26:36.198Z,26.90
2022-08-17T11:29:17.474Z,26.93
2022-08-17T11:31:58.152Z,26.97
2022-08-17T11:34:27.348Z,27.03
2022-08-17T11:36:56.417Z,27.04
2022-08-17T11:39:33.196Z,27.07
2022-08-17T11:42:44.806Z,27.08
2022-08-17T11:45:33.080Z,27.14
2022-08-17T11:48:56.022Z,27.16
2022-08-17T11:51:43.837Z,27.22
2022-08-17T11:54:32.209Z,27.25
2022-08-17T11:57:21.332Z,27.31
2022-08-17T11:59:47.828Z,27.35
2022-08-17T12:02:28.019Z,27.35
2022-08-17T12:05:21.740Z,27.38
2022-08-17T12:08:14.760Z,27.37
2022-08-17T12:11:55.624Z,27.43
2022-08-17T12:14:21.245Z,27.48
2022-08-17T12:17:03.122Z,27.47
2022-08-17T12:19:33.755Z,27.54
2022-08-17T12:22:08.152Z,27.58
2022-08-17T12:24:34.709Z,27.59
2022-08-17T12:27:07.074Z,27.62
2022-08-17T12:29:38.735Z,27.69
2022-08-17T12:32:07.016Z,27.70
2022-08-17T12:34:42.982Z,27.72
2022-08-17T12:37:21.748Z,27.73
2022-08-17T12:40:08.172Z,27.77
2022-08-17T12:42:39.175Z,27.82
2022-08-17T12:45:08.342Z,27.86
2022-08-17T12:47:37.914Z,27.83
2022-08-17T12:50:29.610Z,27.88
2022-08-17T12:53:01.719Z,27.88
2022-08-17T12:55:35.005Z,27.94
2022-08-17T12:58:02.251Z,27.94
2022-08-17T13:00:38.162Z,27.94
2022-08-17T13:03:09.425Z,28.04
2022-08-17T13:05:42.441Z,28.05
2022-08-17T13:08:43.171Z,28.09
2022-08-17T13:11:20.766Z,28.13
2022-08-17T13:13:54.719Z,28.16
2022-08-17T13:16:23.452Z,28.07
2022-08-17T13:19:06.163Z,28.14
2022-08-17T13:21:33.682Z,28.18
2022-08-17T13:24:07.922Z,28.17
2022-08-17T13:26:38.159Z,28.23
2022-08-17T13:29:18.385Z,28.26
2022-08-17T13:31:51.993Z,28.26
2022-08-17T13:34:26.794Z,28.31
2022-08-17T13:37:40.955Z,28.32
2022-08-17T13:40:09.276Z,28.35
2022-08-17T13:42:50.570Z,28.38
2022-08-17T13:45:35.407Z,28.32
2022-08-17T13:48:11.896Z,28.38
2022-08-17T13:50:43.365Z,28.42
2022-08-17T13:53:29.569Z,28.43
2022-08-17T13:56:07.317Z,28.45
2022-08-17T13:58:58.385Z,28.48
2022-08-17T14:01:35.558Z,28.48
2022-08-17T14:04:08.621Z,28.49
2022-08-17T14:06:54.053Z,28.49
2022-08-17T14:09:24.561Z,28.54
2022-08-17T14:11:52.688Z,28.58
2022-08-17T14:14:19.661Z,28.60
2022-08-17T14:16:46.133Z,28.63
2022-08-17T14:19:14.355Z,28.67
2022-08-17T14:21:43.404Z,28.69
2022-08-17T14:24:28.418Z,28.74
2022-08-17T14:26:55.790Z,28.75
2022-08-17T14:29:24.750Z,28.77
2022-08-17T14:31:54.240Z,28.76
2022-08-17T14:34:21.609Z,28.76
2022-08-17T14:36:48.861Z,28.80
2022-08-17T14:39:16.640Z,28.79
2022-08-17T14:41:43.650Z,28.82
2022-08-17T14:44:13.012Z,28.84
2022-08-17T14:46:41.448Z,28.85
2022-08-17T14:49:11.811Z,28.83
2022-08-17T14:51:43.533Z,28.87
2022-08-17T14:54:11.474Z,28.89
2022-08-17T14:57:23.118Z,28.89
2022-08-17T14:59:44.870Z,28.87
2022-08-17T15:02:12.063Z,28.88
2022-08-17T15:04:43.357Z,28.89
2022-08-17T15:07:11.892Z,28.90
2022-08-17T15:09:39.002Z,28.90
2022-08-17T15:12:09.187Z,28.90
2022-08-17T15:14:36.212Z,28.91
2022-08-17T15:17:03.674Z,28.92
2022-08-17T15:19:30.217Z,28.91
2022-08-17T15:21:56.687Z,28.89
2022-08-17T15:24:23.274Z,28.91
2022-08-17T15:26:49.845Z,28.93
2022-08-17T15:29:17.541Z,28.92
2022-08-17T15:31:43.958Z,28.89
2022-08-17T15:34:10.415Z,28.91
2022-08-17T15:36:37.020Z,28.93
2022-08-17T15:39:05.337Z,28.95
2022-08-17T15:41:31.885Z,28.90
2022-08-17T15:43:58.507Z,28.93
2022-08-17T15:46:26.168Z,28.95
2022-08-17T15:49:00.003Z,28.94
2022-08-17T15:51:32.587Z,28.99
2022-08-17T15:54:18.711Z,28.98
2022-08-17T15:56:48.768Z,28.97
2022-08-17T15:59:15.341Z,28.92
2022-08-17T16:03:01.217Z,28.92
2022-08-17T16:04:30.908Z,28.96
2022-08-17T16:06:59.003Z,28.96
2022-08-17T16:09:25.460Z,28.94
2022-08-17T16:11:55.204Z,28.96
2022-08-17T16:14:24.120Z,28.98
2022-08-17T16:16:50.944Z,29.00
2022-08-17T16:19:17.461Z,29.00
2022-08-17T16:21:43.902Z,28.99
2022-08-17T16:24:13.190Z,29.02
2022-08-17T16:26:42.438Z,29.04
2022-08-17T16:29:09.104Z,29.07
2022-08-17T16:31:37.532Z,29.06
2022-08-17T16:34:17.023Z,29.12
2022-08-17T16:36:53.771Z,29.09
2022-08-17T16:39:22.672Z,29.09
2022-08-17T16:41:50.267Z,29.10
2022-08-17T16:44:19.619Z,29.14
2022-08-17T16:46:48.249Z,29.14
2022-08-17T16:49:31.930Z,29.14
2022-08-17T16:52:03.795Z,29.14
2022-08-17T16:54:30.291Z,29.10
2022-08-17T16:56:56.782Z,29.10
2022-08-17T16:59:30.925Z,29.10
2022-08-17T17:02:04.936Z,29.10
2022-08-17T17:04:34.982Z,29.08
2022-08-17T17:07:34.287Z,29.02
2022-08-17T17:10:08.194Z,29.03
2022-08-17T17:13:03.195Z,29.03
2022-08-17T17:15:28.179Z,29.01
2022-08-17T17:18:06.795Z,29.03
2022-08-17T17:20:45.695Z,29.00
2022-08-17T17:23:41.067Z,28.94
2022-08-17T17:26:32.082Z,28.93
2022-08-17T17:29:23.960Z,28.92
2022-08-17T17:32:20.847Z,28.87
2022-08-17T17:34:59.961Z,28.89
2022-08-17T17:37:33.876Z,28.89
2022-08-17T17:40:02.824Z,28.77
2022-08-17T17:42:32.190Z,28.78
2022-08-17T17:45:07.478Z,28.78
2022-08-17T17:47:34.726Z,28.69
2022-08-17T17:50:03.709Z,28.64
2022-08-17T17:52:45.278Z,28.60
2022-08-17T17:55:33.550Z,28.56
2022-08-17T17:58:14.322Z,28.52
2022-08-17T18:01:01.783Z,28.51
2022-08-17T18:04:01.644Z,28.41
2022-08-17T18:07:03.857Z,28.32
2022-08-17T18:10:19.590Z,28.28
2022-08-17T18:13:08.462Z,28.25
2022-08-17T18:15:50.991Z,28.20
2022-08-17T18:18:17.481Z,28.14
2022-08-17T18:20:53.190Z,27.90
2022-08-17T18:23:27.097Z,27.86
2022-08-17T18:25:55.479Z,27.68
2022-08-17T18:28:35.539Z,27.68
2022-08-17T18:31:17.769Z,27.68
2022-08-17T18:33:47.968Z,27.68
2022-08-17T18:36:26.478Z,27.62
2022-08-17T18:39:10.524Z,27.56
2022-08-17T18:41:48.606Z,27.52
2022-08-17T18:44:42.852Z,27.45
2022-08-17T18:47:21.684Z,27.44
2022-08-17T18:49:56.162Z,27.43
2022-08-17T18:52:31.912Z,27.38
2022-08-17T18:55:10.567Z,27.38
2022-08-17T18:57:43.435Z,27.31
2022-08-17T19:00:29.882Z,27.26
2022-08-17T19:03:00.871Z,27.20
2022-08-17T19:05:56.229Z,27.15
2022-08-17T19:08:26.523Z,27.09
2022-08-17T19:11:01.014Z,27.06
2022-08-17T19:14:02.963Z,27.02
2022-08-17T19:16:44.467Z,26.99
2022-08-17T19:19:18.558Z,26.97
2022-08-17T19:21:48.994Z,26.84
2022-08-17T19:24:21.146Z,26.85
2022-08-17T19:27:10.896Z,26.84
2022-08-17T19:29:40.580Z,26.81
2022-08-17T19:32:09.615Z,26.79
2022-08-17T19:34:39.045Z,26.75
2022-08-17T19:37:23.179Z,26.71
2022-08-17T19:40:07.812Z,26.69
2022-08-17T19:43:00.463Z,26.63
2022-08-17T19:45:42.237Z,26.60
2022-08-17T19:48:45.366Z,26.56
2022-08-17T19:51:38.685Z,26.53
2022-08-17T19:54:20.293Z,26.52
2022-08-17T19:57:01.738Z,26.49
2022-08-17T19:59:54.938Z,26.44
2022-08-17T20:02:26.680Z,26.42
2022-08-17T20:04:59.781Z,26.40
2022-08-17T20:07:35.800Z,26.37
2022-08-17T20:10:09.567Z,26.35
2022-08-17T20:12:38.928Z,26.32
2022-08-17T20:15:10.115Z,26.30
2022-08-17T20:17:40.617Z,26.28
2022-08-17T20:20:33.219Z,26.25
2022-08-17T20:23:11.788Z,26.20
2022-08-17T20:25:57.274Z,26.19
2022-08-17T20:28:30.489Z,26.16
2022-08-17T20:30:58.190Z,26.12
2022-08-17T20:33:37.029Z,26.09
2022-08-17T20:36:18.036Z,26.07
2022-08-17T20:38:51.702Z,26.05
2022-08-17T20:41:22.826Z,26.03
2022-08-17T20:43:58.869Z,25.99
2022-08-17T20:46:37.857Z,25.97
2022-08-17T20:49:37.560Z,25.92
2022-08-17T20:52:13.345Z,25.90
2022-08-17T20:54:55.135Z,25.88
2022-08-17T20:57:31.171Z,25.84
2022-08-17T21:00:13.246Z,25.82
2022-08-17T21:02:44.455Z,25.78
2022-08-17T21:05:48.545Z,25.74
2022-08-17T21:08:32.110Z,25.73
2022-08-17T21:11:20.220Z,25.70
2022-08-17T21:14:25.880Z,25.66
2022-08-17T21:17:14.808Z,25.62
2022-08-17T21:20:10.228Z,25.58
2022-08-17T21:22:56.489Z,25.56
2022-08-17T21:25:44.803Z,25.50
2022-08-17T21:28:34.129Z,25.48
2022-08-17T21:31:08.437Z,25.45
2022-08-17T21:33:39.859Z,25.44
2022-08-17T21:36:12.622Z,25.39
2022-08-17T21:38:48.607Z,25.35
2022-08-17T21:41:28.394Z,25.32
2022-08-17T21:44:02.834Z,25.29
2022-08-17T21:46:34.319Z,25.25
2022-08-17T21:49:12.238Z,25.23
2022-08-17T21:51:54.153Z,25.18
2022-08-17T21:54:31.340Z,25.14
2022-08-17T21:57:00.856Z,25.14
2022-08-17T21:59:35.582Z,25.11
2022-08-17T22:02:18.687Z,25.06
2022-08-17T22:04:58.646Z,25.04
2022-08-17T22:07:46.906Z,25.00
2022-08-17T22:10:28.555Z,24.95
2022-08-17T22:13:03.445Z,24.97
2022-08-17T22:15:29.971Z,24.93
2022-08-17T22:17:58.510Z,24.89
2022-08-17T22:20:25.255Z,24.84
2022-08-17T22:23:24.602Z,24.83
2022-08-17T22:26:02.046Z,24.79
2022-08-17T22:28:53.659Z,24.73
2022-08-17T22:31:23.276Z,24.74
2022-08-17T22:34:12.259Z,24.71
2022-08-17T22:36:41.754Z,24.68
2022-08-17T22:39:08.369Z,24.67
2022-08-17T22:41:40.470Z,24.65
2022-08-17T22:44:14.213Z,24.61
2022-08-17T22:46:56.994Z,24.58
2022-08-17T22:49:35.181Z,24.58
2022-08-17T22:52:23.928Z,24.54
2022-08-17T22:55:34.876Z,24.52
2022-08-17T22:58:21.042Z,24.50
2022-08-17T23:00:49.023Z,24.46
2022-08-17T23:03:26.214Z,24.45
2022-08-17T23:06:05.804Z,24.40
2022-08-17T23:08:35.565Z,24.39
2022-08-17T23:11:02.369Z,24.34
2022-08-17T23:13:28.917Z,24.35
2022-08-17T23:15:55.390Z,24.31
2022-08-17T23:18:23.414Z,24.29
2022-08-17T23:20:49.969Z,24.24
2022-08-17T23:23:23.431Z,24.23
2022-08-17T23:25:50.257Z,24.23
2022-08-17T23:28:16.856Z,24.22
2022-08-17T23:30:45.058Z,24.19
2022-08-17T23:33:29.756Z,24.16
2022-08-17T23:36:00.287Z,24.15
2022-08-17T23:38:27.763Z,24.11
2022-08-17T23:40:56.265Z,24.13
2022-08-17T23:43:24.281Z,24.09
2022-08-17T23:45:54.305Z,24.09
2022-08-17T23:48:28.562Z,24.07
2022-08-17T23:51:05.778Z,24.06
2022-08-17T23:53:36.590Z,24.05
2022-08-17T23:56:09.354Z,24.02
2022-08-17T23:58:38.470Z,23.99
